sensor_id;sensor_type;location;lat;lon;timestamp;pressure;altitude;pressure_sealevel;temperature;humidity
10946;BME280;5525;42.648;23.368;2023-03-25T00:01:42;94374.41;;;8.61;100.00
10946;BME280;5525;42.648;23.368;2023-03-25T00:04:09;94371.25;;;8.67;100.00
10946;BME280;5525;42.648;23.368;2023-03-25T00:06:36;94375.66;;;8.46;100.00
10946;BME280;5525;42.648;23.368;2023-03-25T00:09:04;94380.25;;;8.54;100.00
10946;BME280;5525;42.648;23.368;2023-03-25T00:11:32;94374.41;;;8.61;100.00
10946;BME280;5525;42.648;23.368;2023-03-25T00:13:58;94373.91;;;8.58;100.00
10946;BME280;5525;42.648;23.368;2023-03-25T00:16:25;94381.06;;;8.54;100.00
10946;BME280;5525;42.648;23.368;2023-03-25T00:18:52;94372.34;;;8.40;100.00
10946;BME280;5525;42.648;23.368;2023-03-25T00:21:20;94371.72;;;8.43;100.00
10946;BME280;5525;42.648;23.368;2023-03-25T00:23:47;94373.16;;;8.41;100.00
10946;BME280;5525;42.648;23.368;2023-03-25T00:26:14;94365.53;;;8.17;100.00
10946;BME280;5525;42.648;23.368;2023-03-25T00:28:42;94359.22;;;8.30;100.00
10946;BME280;5525;42.648;23.368;2023-03-25T00:31:11;94355.56;;;8.35;100.00
10946;BME280;5525;42.648;23.368;2023-03-25T00:33:38;94363.31;;;8.36;100.00
10946;BME280;5525;42.648;23.368;2023-03-25T00:36:07;94360.00;;;8.56;100.00
10946;BME280;5525;42.648;23.368;2023-03-25T00:38:34;94356.66;;;8.68;100.00
10946;BME280;5525;42.648;23.368;2023-03-25T00:41:09;94349.72;;;8.50;100.00
10946;BME280;5525;42.648;23.368;2023-03-25T00:43:36;94354.63;;;8.39;100.00
10946;BME280;5525;42.648;23.368;2023-03-25T00:46:04;94358.25;;;8.18;100.00
10946;BME280;5525;42.648;23.368;2023-03-25T00:48:31;94365.34;;;8.05;100.00
10946;BME280;5525;42.648;23.368;2023-03-25T00:50:59;94365.34;;;8.14;100.00
10946;BME280;5525;42.648;23.368;2023-03-25T00:53:32;94344.81;;;8.35;100.00
10946;BME280;5525;42.648;23.368;2023-03-25T00:55:58;94348.78;;;8.37;100.00
10946;BME280;5525;42.648;23.368;2023-03-25T00:58:25;94343.09;;;8.39;100.00
10946;BME280;5525;42.648;23.368;2023-03-25T01:00:52;94356.03;;;8.54;100.00
10946;BME280;5525;42.648;23.368;2023-03-25T01:03:22;94350.38;;;8.47;100.00
10946;BME280;5525;42.648;23.368;2023-03-25T01:05:49;94344.47;;;8.53;100.00
10946;BME280;5525;42.648;23.368;2023-03-25T01:08:19;94333.56;;;8.58;100.00
10946;BME280;5525;42.648;23.368;2023-03-25T01:10:50;94330.56;;;8.51;100.00
10946;BME280;5525;42.648;23.368;2023-03-25T01:13:17;94333.56;;;8.58;100.00
10946;BME280;5525;42.648;23.368;2023-03-25T01:15:43;94337.66;;;8.65;100.00
10946;BME280;5525;42.648;23.368;2023-03-25T01:18:10;94330.09;;;8.49;100.00
10946;BME280;5525;42.648;23.368;2023-03-25T01:20:39;94324.66;;;8.75;100.00
10946;BME280;5525;42.648;23.368;2023-03-25T01:23:06;94321.41;;;8.35;100.00
10946;BME280;5525;42.648;23.368;2023-03-25T01:25:33;94323.63;;;8.42;100.00
10946;BME280;5525;42.648;23.368;2023-03-25T01:28:00;94321.72;;;8.42;100.00
10946;BME280;5525;42.648;23.368;2023-03-25T01:30:27;94325.66;;;8.45;100.00
10946;BME280;5525;42.648;23.368;2023-03-25T01:32:53;94319.16;;;8.46;100.00
10946;BME280;5525;42.648;23.368;2023-03-25T01:35:20;94313.03;;;8.45;100.00
10946;BME280;5525;42.648;23.368;2023-03-25T01:37:48;94310.47;;;8.40;100.00
10946;BME280;5525;42.648;23.368;2023-03-25T01:40:20;94303.84;;;8.21;100.00
10946;BME280;5525;42.648;23.368;2023-03-25T01:42:48;94299.09;;;8.18;100.00
10946;BME280;5525;42.648;23.368;2023-03-25T01:45:20;94295.63;;;8.26;100.00
10946;BME280;5525;42.648;23.368;2023-03-25T01:47:49;94298.28;;;7.83;100.00
10946;BME280;5525;42.648;23.368;2023-03-25T01:50:18;94278.69;;;7.74;100.00
10946;BME280;5525;42.648;23.368;2023-03-25T01:52:50;94297.78;;;7.81;100.00
10946;BME280;5525;42.648;23.368;2023-03-25T01:55:18;94305.19;;;7.67;100.00
10946;BME280;5525;42.648;23.368;2023-03-25T01:57:49;94307.09;;;7.50;100.00
10946;BME280;5525;42.648;23.368;2023-03-25T02:00:19;94309.09;;;7.36;100.00
10946;BME280;5525;42.648;23.368;2023-03-25T02:02:47;94313.41;;;7.06;100.00
10946;BME280;5525;42.648;23.368;2023-03-25T02:05:19;94307.09;;;7.02;100.00
10946;BME280;5525;42.648;23.368;2023-03-25T02:07:48;94296.84;;;7.04;100.00
10946;BME280;5525;42.648;23.368;2023-03-25T02:10:17;94295.53;;;6.93;100.00
10946;BME280;5525;42.648;23.368;2023-03-25T02:12:44;94302.53;;;7.11;100.00
10946;BME280;5525;42.648;23.368;2023-03-25T02:15:14;94299.34;;;7.01;100.00
10946;BME280;5525;42.648;23.368;2023-03-25T02:17:52;94301.31;;;7.17;100.00
10946;BME280;5525;42.648;23.368;2023-03-25T02:26:51;94297.41;;;7.40;100.00
10946;BME280;5525;42.648;23.368;2023-03-25T02:29:37;94293.78;;;7.36;100.00
10946;BME280;5525;42.648;23.368;2023-03-25T02:32:19;94293.16;;;7.39;100.00
10946;BME280;5525;42.648;23.368;2023-03-25T02:35:03;94291.19;;;7.23;100.00
10946;BME280;5525;42.648;23.368;2023-03-25T02:40:35;94292.50;;;7.25;100.00
10946;BME280;5525;42.648;23.368;2023-03-25T02:43:04;94294.72;;;7.32;100.00
10946;BME280;5525;42.648;23.368;2023-03-25T02:45:39;94294.56;;;7.28;100.00
10946;BME280;5525;42.648;23.368;2023-03-25T02:48:13;94292.31;;;7.22;100.00
10946;BME280;5525;42.648;23.368;2023-03-25T02:50:45;94286.97;;;7.30;100.00
10946;BME280;5525;42.648;23.368;2023-03-25T02:53:18;94282.56;;;7.43;100.00
10946;BME280;5525;42.648;23.368;2023-03-25T02:55:49;94281.94;;;7.37;100.00
10946;BME280;5525;42.648;23.368;2023-03-25T02:58:18;94278.94;;;7.30;100.00
10946;BME280;5525;42.648;23.368;2023-03-25T03:00:47;94273.88;;;7.29;100.00
10946;BME280;5525;42.648;23.368;2023-03-25T03:03:16;94280.94;;;7.25;100.00
10946;BME280;5525;42.648;23.368;2023-03-25T03:05:44;94279.19;;;7.12;100.00
10946;BME280;5525;42.648;23.368;2023-03-25T03:08:25;94278.06;;;7.13;100.00
10946;BME280;5525;42.648;23.368;2023-03-25T03:11:04;94271.44;;;7.10;100.00
10946;BME280;5525;42.648;23.368;2023-03-25T03:13:45;94271.56;;;7.05;100.00
10946;BME280;5525;42.648;23.368;2023-03-25T03:16:21;94270.50;;;6.75;100.00
10946;BME280;5525;42.648;23.368;2023-03-25T03:18:57;94271.03;;;6.86;100.00
10946;BME280;5525;42.648;23.368;2023-03-25T03:21:33;94273.00;;;6.63;100.00
10946;BME280;5525;42.648;23.368;2023-03-25T03:24:09;94277.53;;;6.54;100.00
10946;BME280;5525;42.648;23.368;2023-03-25T03:26:42;94278.25;;;6.46;100.00
10946;BME280;5525;42.648;23.368;2023-03-25T03:29:14;94271.66;;;6.52;100.00
10946;BME280;5525;42.648;23.368;2023-03-25T03:31:44;94272.59;;;6.26;100.00
10946;BME280;5525;42.648;23.368;2023-03-25T03:34:19;94289.25;;;6.14;100.00
10946;BME280;5525;42.648;23.368;2023-03-25T03:36:49;94286.00;;;6.26;100.00
10946;BME280;5525;42.648;23.368;2023-03-25T03:39:22;94286.78;;;6.48;100.00
10946;BME280;5525;42.648;23.368;2023-03-25T03:41:54;94279.91;;;6.64;100.00
10946;BME280;5525;42.648;23.368;2023-03-25T03:44:29;94287.03;;;6.69;100.00
10946;BME280;5525;42.648;23.368;2023-03-25T03:46:58;94285.38;;;6.81;100.00
10946;BME280;5525;42.648;23.368;2023-03-25T03:49:29;94288.84;;;6.82;100.00
10946;BME280;5525;42.648;23.368;2023-03-25T03:52:02;94289.91;;;6.72;100.00
10946;BME280;5525;42.648;23.368;2023-03-25T03:54:37;94280.75;;;6.73;100.00
10946;BME280;5525;42.648;23.368;2023-03-25T03:57:09;94286.59;;;6.75;100.00
10946;BME280;5525;42.648;23.368;2023-03-25T03:59:41;94290.72;;;6.73;100.00
10946;BME280;5525;42.648;23.368;2023-03-25T04:02:19;94286.34;;;6.85;100.00
10946;BME280;5525;42.648;23.368;2023-03-25T04:04:48;94290.13;;;6.84;100.00
10946;BME280;5525;42.648;23.368;2023-03-25T04:07:17;94294.44;;;6.94;100.00
10946;BME280;5525;42.648;23.368;2023-03-25T04:09:51;94283.06;;;6.97;100.00
10946;BME280;5525;42.648;23.368;2023-03-25T04:12:24;94296.38;;;7.11;100.00
10946;BME280;5525;42.648;23.368;2023-03-25T04:14:52;94291.78;;;7.03;100.00
10946;BME280;5525;42.648;23.368;2023-03-25T04:17:19;94290.47;;;6.92;100.00
10946;BME280;5525;42.648;23.368;2023-03-25T04:19:46;94293.06;;;7.05;100.00
10946;BME280;5525;42.648;23.368;2023-03-25T04:22:16;94285.94;;;7.01;100.00
10946;BME280;5525;42.648;23.368;2023-03-25T04:24:43;94288.69;;;6.78;100.00
10946;BME280;5525;42.648;23.368;2023-03-25T04:27:11;94289.19;;;6.89;100.00
10946;BME280;5525;42.648;23.368;2023-03-25T04:29:40;94284.31;;;6.91;100.00
10946;BME280;5525;42.648;23.368;2023-03-25T04:32:09;94285.56;;;6.93;100.00
10946;BME280;5525;42.648;23.368;2023-03-25T04:34:36;94289.31;;;7.15;100.00
10946;BME280;5525;42.648;23.368;2023-03-25T04:37:03;94285.50;;;7.16;100.00
10946;BME280;5525;42.648;23.368;2023-03-25T04:39:30;94285.81;;;7.23;100.00
10946;BME280;5525;42.648;23.368;2023-03-25T04:41:58;94289.34;;;7.32;100.00
10946;BME280;5525;42.648;23.368;2023-03-25T04:44:28;94294.41;;;7.42;100.00
10946;BME280;5525;42.648;23.368;2023-03-25T04:46:58;94294.41;;;7.42;100.00
10946;BME280;5525;42.648;23.368;2023-03-25T04:49:24;94300.47;;;7.56;100.00
10946;BME280;5525;42.648;23.368;2023-03-25T04:51:53;94295.09;;;7.64;100.00
10946;BME280;5525;42.648;23.368;2023-03-25T04:54:21;94293.38;;;7.68;100.00
10946;BME280;5525;42.648;23.368;2023-03-25T04:56:47;94288.66;;;7.82;100.00
10946;BME280;5525;42.648;23.368;2023-03-25T04:59:15;94296.56;;;7.96;100.00
10946;BME280;5525;42.648;23.368;2023-03-25T05:01:44;94296.25;;;7.97;100.00
10946;BME280;5525;42.648;23.368;2023-03-25T05:04:12;94297.31;;;8.13;100.00
10946;BME280;5525;42.648;23.368;2023-03-25T05:06:43;94299.53;;;8.20;100.00
10946;BME280;5525;42.648;23.368;2023-03-25T05:09:13;94294.34;;;8.40;100.00
10946;BME280;5525;42.648;23.368;2023-03-25T05:11:41;94297.50;;;8.51;100.00
10946;BME280;5525;42.648;23.368;2023-03-25T05:14:09;94284.63;;;8.65;100.00
10946;BME280;5525;42.648;23.368;2023-03-25T05:16:36;94283.84;;;8.65;100.00
10946;BME280;5525;42.648;23.368;2023-03-25T05:19:04;94287.13;;;8.79;100.00
10946;BME280;5525;42.648;23.368;2023-03-25T05:21:31;94294.88;;;8.89;100.00
10946;BME280;5525;42.648;23.368;2023-03-25T05:24:00;94288.84;;;8.83;100.00
10946;BME280;5525;42.648;23.368;2023-03-25T05:26:27;94300.69;;;8.99;100.00
10946;BME280;5525;42.648;23.368;2023-03-25T05:28:59;94293.06;;;9.01;100.00
10946;BME280;5525;42.648;23.368;2023-03-25T05:31:26;94296.41;;;8.98;100.00
10946;BME280;5525;42.648;23.368;2023-03-25T05:33:53;94294.28;;;9.12;100.00
10946;BME280;5525;42.648;23.368;2023-03-25T05:36:21;94288.50;;;9.31;100.00
10946;BME280;5525;42.648;23.368;2023-03-25T05:38:49;94286.44;;;9.36;100.00
10946;BME280;5525;42.648;23.368;2023-03-25T05:41:19;94279.69;;;9.51;100.00
10946;BME280;5525;42.648;23.368;2023-03-25T05:43:47;94293.66;;;9.73;100.00
10946;BME280;5525;42.648;23.368;2023-03-25T05:46:18;94285.03;;;9.80;100.00
10946;BME280;5525;42.648;23.368;2023-03-25T05:48:44;94292.75;;;9.90;100.00
10946;BME280;5525;42.648;23.368;2023-03-25T05:51:13;94288.34;;;9.85;100.00
10946;BME280;5525;42.648;23.368;2023-03-25T05:53:42;94283.38;;;10.16;100.00
10946;BME280;5525;42.648;23.368;2023-03-25T05:56:09;94287.97;;;10.37;100.00
10946;BME280;5525;42.648;23.368;2023-03-25T05:58:37;94288.09;;;10.40;100.00
10946;BME280;5525;42.648;23.368;2023-03-25T06:01:05;94294.84;;;10.67;100.00
10946;BME280;5525;42.648;23.368;2023-03-25T06:03:33;94288.47;;;10.83;100.00
10946;BME280;5525;42.648;23.368;2023-03-25T06:06:00;94297.41;;;11.08;100.00
10946;BME280;5525;42.648;23.368;2023-03-25T06:08:29;94289.91;;;11.25;100.00
10946;BME280;5525;42.648;23.368;2023-03-25T06:10:58;94289.31;;;11.32;100.00
10946;BME280;5525;42.648;23.368;2023-03-25T06:13:26;94288.88;;;11.54;100.00
10946;BME280;5525;42.648;23.368;2023-03-25T06:15:52;94280.44;;;11.67;100.00
10946;BME280;5525;42.648;23.368;2023-03-25T06:18:21;94284.41;;;11.70;100.00
10946;BME280;5525;42.648;23.368;2023-03-25T06:20:50;94286.75;;;11.83;100.00
10946;BME280;5525;42.648;23.368;2023-03-25T06:23:19;94281.44;;;11.99;100.00
10946;BME280;5525;42.648;23.368;2023-03-25T06:25:47;94273.06;;;12.04;100.00
10946;BME280;5525;42.648;23.368;2023-03-25T06:28:15;94274.28;;;12.19;100.00
10946;BME280;5525;42.648;23.368;2023-03-25T06:30:44;94279.28;;;12.32;100.00
10946;BME280;5525;42.648;23.368;2023-03-25T06:33:11;94284.03;;;12.35;100.00
10946;BME280;5525;42.648;23.368;2023-03-25T06:35:39;94276.06;;;12.27;100.00
10946;BME280;5525;42.648;23.368;2023-03-25T06:38:07;94277.63;;;12.55;100.00
10946;BME280;5525;42.648;23.368;2023-03-25T06:40:34;94288.34;;;12.79;100.00
10946;BME280;5525;42.648;23.368;2023-03-25T06:43:02;94280.91;;;13.04;100.00
10946;BME280;5525;42.648;23.368;2023-03-25T06:45:30;94282.50;;;13.20;100.00
10946;BME280;5525;42.648;23.368;2023-03-25T06:47:57;94283.81;;;14.61;94.94
10946;BME280;5525;42.648;23.368;2023-03-25T06:50:24;94282.53;;;18.94;75.20
10946;BME280;5525;42.648;23.368;2023-03-25T06:52:51;94281.78;;;23.02;51.90
10946;BME280;5525;42.648;23.368;2023-03-25T06:55:18;94294.00;;;24.18;43.07
10946;BME280;5525;42.648;23.368;2023-03-25T06:57:44;94291.53;;;25.51;42.21
10946;BME280;5525;42.648;23.368;2023-03-25T07:00:12;94297.38;;;29.09;34.96
10946;BME280;5525;42.648;23.368;2023-03-25T07:02:40;94302.53;;;27.31;34.59
10946;BME280;5525;42.648;23.368;2023-03-25T07:05:07;94307.31;;;30.45;30.58
10946;BME280;5525;42.648;23.368;2023-03-25T07:07:34;94309.44;;;32.16;27.14
10946;BME280;5525;42.648;23.368;2023-03-25T07:10:01;94305.16;;;31.15;26.80
10946;BME280;5525;42.648;23.368;2023-03-25T07:12:27;94306.44;;;31.51;26.43
10946;BME280;5525;42.648;23.368;2023-03-25T07:14:55;94305.63;;;32.46;25.56
10946;BME280;5525;42.648;23.368;2023-03-25T07:17:23;94312.38;;;33.19;24.22
10946;BME280;5525;42.648;23.368;2023-03-25T07:19:51;94298.88;;;32.85;23.99
10946;BME280;5525;42.648;23.368;2023-03-25T07:22:18;94293.63;;;32.54;24.31
10946;BME280;5525;42.648;23.368;2023-03-25T07:24:44;94302.47;;;33.71;23.17
10946;BME280;5525;42.648;23.368;2023-03-25T07:27:11;94304.19;;;33.30;23.72
10946;BME280;5525;42.648;23.368;2023-03-25T07:29:38;94293.97;;;35.88;20.82
10946;BME280;5525;42.648;23.368;2023-03-25T07:32:06;94311.56;;;38.19;19.10
10946;BME280;5525;42.648;23.368;2023-03-25T07:34:32;94317.66;;;38.06;18.71
10946;BME280;5525;42.648;23.368;2023-03-25T07:37:01;94313.31;;;38.05;18.68
10946;BME280;5525;42.648;23.368;2023-03-25T07:39:28;94314.19;;;40.25;17.00
10946;BME280;5525;42.648;23.368;2023-03-25T07:41:55;94311.09;;;40.58;16.24
10946;BME280;5525;42.648;23.368;2023-03-25T07:44:21;94315.50;;;41.18;16.04
10946;BME280;5525;42.648;23.368;2023-03-25T07:46:48;94302.84;;;38.44;17.51
10946;BME280;5525;42.648;23.368;2023-03-25T07:49:15;94301.84;;;40.28;16.54
10946;BME280;5525;42.648;23.368;2023-03-25T07:51:43;94303.81;;;40.39;16.32
10946;BME280;5525;42.648;23.368;2023-03-25T07:54:11;94304.25;;;40.07;16.12
10946;BME280;5525;42.648;23.368;2023-03-25T07:56:38;94302.06;;;39.78;16.03
10946;BME280;5525;42.648;23.368;2023-03-25T07:59:05;94291.72;;;40.38;16.30
10946;BME280;5525;42.648;23.368;2023-03-25T08:01:31;94296.59;;;41.02;15.82
10946;BME280;5525;42.648;23.368;2023-03-25T08:03:58;94293.78;;;41.69;14.76
10946;BME280;5525;42.648;23.368;2023-03-25T08:06:25;94284.56;;;41.20;15.18
10946;BME280;5525;42.648;23.368;2023-03-25T08:08:52;94285.50;;;41.28;15.13
10946;BME280;5525;42.648;23.368;2023-03-25T08:11:21;94280.75;;;40.59;15.34
10946;BME280;5525;42.648;23.368;2023-03-25T08:13:47;94279.91;;;40.40;15.78
10946;BME280;5525;42.648;23.368;2023-03-25T08:16:14;94275.38;;;40.20;15.79
10946;BME280;5525;42.648;23.368;2023-03-25T08:18:41;94272.31;;;39.04;16.48
10946;BME280;5525;42.648;23.368;2023-03-25T08:21:09;94263.34;;;37.25;17.87
10946;BME280;5525;42.648;23.368;2023-03-25T08:23:36;94266.69;;;37.29;17.71
10946;BME280;5525;42.648;23.368;2023-03-25T08:26:03;94263.22;;;37.62;18.00
10946;BME280;5525;42.648;23.368;2023-03-25T08:28:31;94259.84;;;39.45;16.66
10946;BME280;5525;42.648;23.368;2023-03-25T08:30:58;94265.63;;;39.75;16.32
10946;BME280;5525;42.648;23.368;2023-03-25T08:33:26;94263.81;;;39.09;16.66
10946;BME280;5525;42.648;23.368;2023-03-25T08:35:58;94259.25;;;39.63;15.96
10946;BME280;5525;42.648;23.368;2023-03-25T08:38:25;94256.97;;;38.60;16.74
10946;BME280;5525;42.648;23.368;2023-03-25T08:40:56;94256.50;;;37.48;17.46
10946;BME280;5525;42.648;23.368;2023-03-25T08:43:23;94255.28;;;39.83;16.39
10946;BME280;5525;42.648;23.368;2023-03-25T08:45:51;94236.22;;;40.30;15.56
10946;BME280;5525;42.648;23.368;2023-03-25T08:48:18;94237.41;;;41.84;14.67
10946;BME280;5525;42.648;23.368;2023-03-25T08:50:45;94242.91;;;41.34;14.66
10946;BME280;5525;42.648;23.368;2023-03-25T08:53:12;94232.72;;;36.96;17.48
10946;BME280;5525;42.648;23.368;2023-03-25T08:55:38;94233.63;;;38.65;16.60
10946;BME280;5525;42.648;23.368;2023-03-25T08:58:05;94233.94;;;41.06;15.36
10946;BME280;5525;42.648;23.368;2023-03-25T09:00:32;94234.22;;;39.84;15.80
10946;BME280;5525;42.648;23.368;2023-03-25T09:03:02;94223.41;;;37.32;17.50
10946;BME280;5525;42.648;23.368;2023-03-25T09:05:29;94210.75;;;34.44;19.34
10946;BME280;5525;42.648;23.368;2023-03-25T09:07:56;94200.22;;;34.24;19.88
10946;BME280;5525;42.648;23.368;2023-03-25T09:10:23;94205.16;;;35.44;19.44
10946;BME280;5525;42.648;23.368;2023-03-25T09:12:49;94217.19;;;38.31;17.07
10946;BME280;5525;42.648;23.368;2023-03-25T09:15:17;94206.13;;;38.77;16.58
10946;BME280;5525;42.648;23.368;2023-03-25T09:17:43;94206.94;;;38.55;16.83
10946;BME280;5525;42.648;23.368;2023-03-25T09:20:12;94206.41;;;38.46;16.88
10946;BME280;5525;42.648;23.368;2023-03-25T09:22:39;94213.63;;;38.14;17.22
10946;BME280;5525;42.648;23.368;2023-03-25T09:25:07;94195.97;;;39.20;16.56
10946;BME280;5525;42.648;23.368;2023-03-25T09:27:33;94203.78;;;41.32;15.29
10946;BME280;5525;42.648;23.368;2023-03-25T09:30:00;94199.28;;;40.46;15.25
10946;BME280;5525;42.648;23.368;2023-03-25T09:32:27;94183.59;;;34.90;18.73
10946;BME280;5525;42.648;23.368;2023-03-25T09:34:54;94180.41;;;31.34;21.95
10946;BME280;5525;42.648;23.368;2023-03-25T09:37:22;94177.28;;;30.24;23.91
10946;BME280;5525;42.648;23.368;2023-03-25T09:39:49;94172.41;;;33.43;21.25
10946;BME280;5525;42.648;23.368;2023-03-25T09:42:38;94177.66;;;36.42;19.34
10946;BME280;5525;42.648;23.368;2023-03-25T09:45:18;94185.16;;;38.23;17.66
10946;BME280;5525;42.648;23.368;2023-03-25T09:47:53;94189.34;;;39.64;15.97
10946;BME280;5525;42.648;23.368;2023-03-25T09:50:22;94184.75;;;39.61;16.21
10946;BME280;5525;42.648;23.368;2023-03-25T09:52:54;94181.94;;;39.55;16.24
10946;BME280;5525;42.648;23.368;2023-03-25T09:55:25;94175.09;;;32.28;21.11
10946;BME280;5525;42.648;23.368;2023-03-25T09:57:58;94160.00;;;32.11;21.80
10946;BME280;5525;42.648;23.368;2023-03-25T10:00:26;94152.59;;;32.32;21.96
10946;BME280;5525;42.648;23.368;2023-03-25T10:03:01;94148.88;;;35.59;19.44
10946;BME280;5525;42.648;23.368;2023-03-25T10:05:47;94148.22;;;33.31;20.80
10946;BME280;5525;42.648;23.368;2023-03-25T10:08:23;94148.34;;;28.77;25.08
10946;BME280;5525;42.648;23.368;2023-03-25T10:10:54;94139.03;;;28.37;26.26
10946;BME280;5525;42.648;23.368;2023-03-25T10:13:30;94139.44;;;29.25;25.47
10946;BME280;5525;42.648;23.368;2023-03-25T10:16:04;94127.00;;;26.52;28.18
10946;BME280;5525;42.648;23.368;2023-03-25T10:18:45;94126.09;;;27.75;27.02
10946;BME280;5525;42.648;23.368;2023-03-25T10:21:18;94122.41;;;27.15;27.74
10946;BME280;5525;42.648;23.368;2023-03-25T10:23:56;94116.09;;;27.52;27.67
10946;BME280;5525;42.648;23.368;2023-03-25T10:26:29;94110.13;;;27.41;27.48
10946;BME280;5525;42.648;23.368;2023-03-25T10:29:00;94109.34;;;28.13;26.45
10946;BME280;5525;42.648;23.368;2023-03-25T10:31:33;94095.97;;;29.98;25.00
10946;BME280;5525;42.648;23.368;2023-03-25T10:34:03;94095.31;;;31.30;22.93
10946;BME280;5525;42.648;23.368;2023-03-25T10:36:33;94094.09;;;31.12;22.58
10946;BME280;5525;42.648;23.368;2023-03-25T10:39:05;94100.47;;;31.13;22.52
10946;BME280;5525;42.648;23.368;2023-03-25T10:41:39;94091.97;;;33.00;20.26
10946;BME280;5525;42.648;23.368;2023-03-25T10:44:08;94083.84;;;35.15;18.64
10946;BME280;5525;42.648;23.368;2023-03-25T10:46:38;94087.91;;;35.14;18.34
10946;BME280;5525;42.648;23.368;2023-03-25T10:49:13;94085.41;;;34.50;19.58
10946;BME280;5525;42.648;23.368;2023-03-25T10:51:42;94093.91;;;37.60;17.18
10946;BME280;5525;42.648;23.368;2023-03-25T10:54:11;94083.13;;;39.39;15.04
10946;BME280;5525;42.648;23.368;2023-03-25T10:56:41;94078.28;;;33.94;19.06
10946;BME280;5525;42.648;23.368;2023-03-25T10:59:18;94075.66;;;32.60;20.11
10946;BME280;5525;42.648;23.368;2023-03-25T11:01:48;94072.16;;;29.09;23.20
10946;BME280;5525;42.648;23.368;2023-03-25T11:04:16;94070.03;;;28.48;23.98
10946;BME280;5525;42.648;23.368;2023-03-25T11:06:50;94067.03;;;27.74;24.31
10946;BME280;5525;42.648;23.368;2023-03-25T11:09:24;94057.97;;;27.24;25.02
10946;BME280;5525;42.648;23.368;2023-03-25T11:11:52;94056.16;;;27.80;24.81
10946;BME280;5525;42.648;23.368;2023-03-25T11:14:21;94051.75;;;27.57;25.21
10946;BME280;5525;42.648;23.368;2023-03-25T11:16:52;94045.56;;;26.91;25.91
10946;BME280;5525;42.648;23.368;2023-03-25T11:19:24;94037.91;;;27.20;25.99
10946;BME280;5525;42.648;23.368;2023-03-25T11:21:54;94023.34;;;27.66;26.05
10946;BME280;5525;42.648;23.368;2023-03-25T11:24:28;94034.34;;;27.19;26.15
10946;BME280;5525;42.648;23.368;2023-03-25T11:26:56;94026.38;;;27.46;26.20
10946;BME280;5525;42.648;23.368;2023-03-25T11:29:25;94022.34;;;26.60;27.40
10946;BME280;5525;42.648;23.368;2023-03-25T11:32:03;94015.00;;;26.53;27.77
10946;BME280;5525;42.648;23.368;2023-03-25T11:34:31;94014.00;;;26.06;28.48
10946;BME280;5525;42.648;23.368;2023-03-25T11:37:00;94016.31;;;28.08;26.48
10946;BME280;5525;42.648;23.368;2023-03-25T11:39:33;94006.72;;;28.95;25.10
10946;BME280;5525;42.648;23.368;2023-03-25T11:42:26;94012.72;;;29.64;24.43
10946;BME280;5525;42.648;23.368;2023-03-25T11:44:56;93999.00;;;28.99;25.06
10946;BME280;5525;42.648;23.368;2023-03-25T11:47:26;94002.44;;;27.15;26.88
10946;BME280;5525;42.648;23.368;2023-03-25T11:49:55;93998.75;;;29.06;25.08
10946;BME280;5525;42.648;23.368;2023-03-25T11:52:23;93997.56;;;31.48;22.47
10946;BME280;5525;42.648;23.368;2023-03-25T11:54:53;93989.94;;;34.19;20.05
10946;BME280;5525;42.648;23.368;2023-03-25T11:57:23;93989.25;;;34.95;19.67
10946;BME280;5525;42.648;23.368;2023-03-25T12:00:00;93981.38;;;33.68;19.60
10946;BME280;5525;42.648;23.368;2023-03-25T12:02:36;93968.97;;;31.62;21.24
10946;BME280;5525;42.648;23.368;2023-03-25T12:05:11;93977.91;;;32.36;20.83
10946;BME280;5525;42.648;23.368;2023-03-25T12:07:41;93973.97;;;31.81;22.01
10946;BME280;5525;42.648;23.368;2023-03-25T12:10:16;93956.13;;;30.39;22.51
10946;BME280;5525;42.648;23.368;2023-03-25T12:12:49;93962.22;;;28.56;24.16
10946;BME280;5525;42.648;23.368;2023-03-25T12:15:26;93962.34;;;27.53;25.66
10946;BME280;5525;42.648;23.368;2023-03-25T12:18:10;93957.31;;;27.14;25.72
10946;BME280;5525;42.648;23.368;2023-03-25T12:20:47;93945.19;;;26.20;26.92
10946;BME280;5525;42.648;23.368;2023-03-25T12:23:25;93954.31;;;25.92;27.40
10946;BME280;5525;42.648;23.368;2023-03-25T12:26:06;93960.56;;;25.20;28.29
10946;BME280;5525;42.648;23.368;2023-03-25T12:29:01;93961.03;;;24.86;28.93
10946;BME280;5525;42.648;23.368;2023-03-25T12:31:38;93960.03;;;23.86;30.07
10946;BME280;5525;42.648;23.368;2023-03-25T12:34:15;93955.22;;;23.70;30.14
10946;BME280;5525;42.648;23.368;2023-03-25T12:36:53;93955.97;;;23.51;30.83
10946;BME280;5525;42.648;23.368;2023-03-25T12:39:37;93961.16;;;23.03;31.35
10946;BME280;5525;42.648;23.368;2023-03-25T12:42:16;93960.09;;;22.17;32.61
10946;BME280;5525;42.648;23.368;2023-03-25T12:44:53;93960.44;;;22.49;32.40
10946;BME280;5525;42.648;23.368;2023-03-25T12:47:31;93962.91;;;22.40;32.82
10946;BME280;5525;42.648;23.368;2023-03-25T12:50:18;93949.25;;;22.33;32.78
10946;BME280;5525;42.648;23.368;2023-03-25T12:52:54;93957.81;;;22.39;32.75
10946;BME280;5525;42.648;23.368;2023-03-25T12:55:35;93959.81;;;22.38;32.78
10946;BME280;5525;42.648;23.368;2023-03-25T12:58:35;93952.25;;;21.86;33.67
10946;BME280;5525;42.648;23.368;2023-03-25T13:01:11;93960.06;;;21.57;33.98
10946;BME280;5525;42.648;23.368;2023-03-25T13:03:58;93954.09;;;21.62;34.60
10946;BME280;5525;42.648;23.368;2023-03-25T13:06:33;93953.03;;;21.52;34.93
10946;BME280;5525;42.648;23.368;2023-03-25T13:09:08;93958.47;;;21.56;34.81
10946;BME280;5525;42.648;23.368;2023-03-25T13:11:38;93951.75;;;21.27;35.28
10946;BME280;5525;42.648;23.368;2023-03-25T13:14:13;93952.56;;;21.24;35.35
10946;BME280;5525;42.648;23.368;2023-03-25T13:16:43;93938.03;;;21.23;35.39
10946;BME280;5525;42.648;23.368;2023-03-25T13:19:15;93947.72;;;21.35;35.50
10946;BME280;5525;42.648;23.368;2023-03-25T13:21:44;93944.28;;;21.27;35.77
10946;BME280;5525;42.648;23.368;2023-03-25T13:24:16;93950.56;;;20.84;36.15
10946;BME280;5525;42.648;23.368;2023-03-25T13:26:45;93948.84;;;20.53;37.31